sensor_id;sensor_type;location;lat;lon;timestamp;P1;durP1;ratioP1;P2;durP2;ratioP2
34872;SDS011;21084;51.098;14.506;2023-03-01T00:01:42;97.60;;;35.17;;
34872;SDS011;21084;51.098;14.506;2023-03-01T00:04:11;96.88;;;35.85;;
34872;SDS011;21084;51.098;14.506;2023-03-01T00:06:39;83.32;;;31.42;;
34872;SDS011;21084;51.098;14.506;2023-03-01T00:09:09;82.82;;;30.75;;
34872;SDS011;21084;51.098;14.506;2023-03-01T00:11:38;89.00;;;31.98;;
34872;SDS011;21084;51.098;14.506;2023-03-01T00:14:07;71.38;;;24.95;;
34872;SDS011;21084;51.098;14.506;2023-03-01T00:16:37;101.20;;;31.63;;
34872;SDS011;21084;51.098;14.506;2023-03-01T00:19:08;78.93;;;28.98;;
34872;SDS011;21084;51.098;14.506;2023-03-01T00:21:40;73.55;;;28.10;;
34872;SDS011;21084;51.098;14.506;2023-03-01T00:24:09;85.53;;;29.50;;
34872;SDS011;21084;51.098;14.506;2023-03-01T00:29:07;79.00;;;28.60;;
34872;SDS011;21084;51.098;14.506;2023-03-01T00:31:37;85.28;;;28.83;;
34872;SDS011;21084;51.098;14.506;2023-03-01T00:34:05;86.90;;;30.45;;
34872;SDS011;21084;51.098;14.506;2023-03-01T00:36:35;82.00;;;29.38;;
34872;SDS011;21084;51.098;14.506;2023-03-01T00:39:07;79.63;;;29.23;;
34872;SDS011;21084;51.098;14.506;2023-03-01T00:41:39;88.50;;;29.58;;
34872;SDS011;21084;51.098;14.506;2023-03-01T00:44:08;85.63;;;30.58;;
34872;SDS011;21084;51.098;14.506;2023-03-01T00:49:07;81.15;;;27.98;;
34872;SDS011;21084;51.098;14.506;2023-03-01T00:51:35;74.60;;;28.57;;
34872;SDS011;21084;51.098;14.506;2023-03-01T00:54:05;80.32;;;28.80;;
34872;SDS011;21084;51.098;14.506;2023-03-01T00:56:36;81.78;;;29.02;;
34872;SDS011;21084;51.098;14.506;2023-03-01T00:59:04;81.38;;;27.45;;
34872;SDS011;21084;51.098;14.506;2023-03-01T01:01:33;68.00;;;26.98;;
34872;SDS011;21084;51.098;14.506;2023-03-01T01:04:03;68.88;;;25.60;;
34872;SDS011;21084;51.098;14.506;2023-03-01T01:06:37;73.10;;;26.55;;
34872;SDS011;21084;51.098;14.506;2023-03-01T01:09:10;69.85;;;27.10;;
34872;SDS011;21084;51.098;14.506;2023-03-01T01:11:44;70.18;;;25.65;;
34872;SDS011;21084;51.098;14.506;2023-03-01T01:14:13;69.22;;;26.25;;
34872;SDS011;21084;51.098;14.506;2023-03-01T01:16:42;67.45;;;25.00;;
34872;SDS011;21084;51.098;14.506;2023-03-01T01:19:12;63.72;;;24.75;;
34872;SDS011;21084;51.098;14.506;2023-03-01T01:21:41;63.60;;;25.13;;
34872;SDS011;21084;51.098;14.506;2023-03-01T01:26:40;63.87;;;24.10;;
34872;SDS011;21084;51.098;14.506;2023-03-01T01:29:09;63.88;;;23.48;;
34872;SDS011;21084;51.098;14.506;2023-03-01T01:31:39;72.55;;;25.45;;
34872;SDS011;21084;51.098;14.506;2023-03-01T01:34:12;59.45;;;24.30;;
34872;SDS011;21084;51.098;14.506;2023-03-01T01:36:43;63.55;;;24.42;;
34872;SDS011;21084;51.098;14.506;2023-03-01T01:39:15;60.97;;;24.50;;
34872;SDS011;21084;51.098;14.506;2023-03-01T01:41:44;58.70;;;24.65;;
34872;SDS011;21084;51.098;14.506;2023-03-01T01:44:14;64.80;;;25.52;;
34872;SDS011;21084;51.098;14.506;2023-03-01T01:46:46;68.25;;;25.15;;
34872;SDS011;21084;51.098;14.506;2023-03-01T01:49:24;72.65;;;26.63;;
34872;SDS011;21084;51.098;14.506;2023-03-01T01:51:57;56.55;;;25.52;;
34872;SDS011;21084;51.098;14.506;2023-03-01T01:54:36;65.60;;;25.15;;
34872;SDS011;21084;51.098;14.506;2023-03-01T01:57:11;63.28;;;24.90;;
34872;SDS011;21084;51.098;14.506;2023-03-01T01:59:43;63.25;;;25.15;;
34872;SDS011;21084;51.098;14.506;2023-03-01T02:02:15;59.78;;;24.80;;
34872;SDS011;21084;51.098;14.506;2023-03-01T02:04:45;60.60;;;25.50;;
34872;SDS011;21084;51.098;14.506;2023-03-01T02:07:16;63.08;;;24.42;;
34872;SDS011;21084;51.098;14.506;2023-03-01T02:09:47;62.92;;;24.35;;
34872;SDS011;21084;51.098;14.506;2023-03-01T02:12:18;64.20;;;24.27;;
34872;SDS011;21084;51.098;14.506;2023-03-01T02:14:49;60.20;;;24.25;;
34872;SDS011;21084;51.098;14.506;2023-03-01T02:17:17;62.67;;;25.52;;
34872;SDS011;21084;51.098;14.506;2023-03-01T02:19:50;64.45;;;24.85;;
34872;SDS011;21084;51.098;14.506;2023-03-01T02:22:28;69.93;;;25.92;;
34872;SDS011;21084;51.098;14.506;2023-03-01T02:25:03;64.00;;;24.63;;
34872;SDS011;21084;51.098;14.506;2023-03-01T02:27:44;64.63;;;23.88;;
34872;SDS011;21084;51.098;14.506;2023-03-01T02:30:20;69.53;;;25.42;;
34872;SDS011;21084;51.098;14.506;2023-03-01T02:32:50;76.22;;;26.63;;
34872;SDS011;21084;51.098;14.506;2023-03-01T02:35:21;78.00;;;30.02;;
34872;SDS011;21084;51.098;14.506;2023-03-01T02:40:18;81.57;;;29.67;;
34872;SDS011;21084;51.098;14.506;2023-03-01T02:45:19;66.18;;;25.25;;
34872;SDS011;21084;51.098;14.506;2023-03-01T02:47:48;74.20;;;26.63;;
34872;SDS011;21084;51.098;14.506;2023-03-01T02:50:23;66.53;;;25.15;;
34872;SDS011;21084;51.098;14.506;2023-03-01T02:53:10;70.10;;;26.08;;
34872;SDS011;21084;51.098;14.506;2023-03-01T02:55:43;71.07;;;26.85;;
34872;SDS011;21084;51.098;14.506;2023-03-01T02:58:12;73.07;;;26.80;;
34872;SDS011;21084;51.098;14.506;2023-03-01T03:00:42;68.38;;;25.13;;
34872;SDS011;21084;51.098;14.506;2023-03-01T03:03:13;68.90;;;24.75;;
34872;SDS011;21084;51.098;14.506;2023-03-01T03:05:44;77.07;;;26.30;;
34872;SDS011;21084;51.098;14.506;2023-03-01T03:08:13;66.60;;;25.60;;
34872;SDS011;21084;51.098;14.506;2023-03-01T03:10:42;64.38;;;26.27;;
34872;SDS011;21084;51.098;14.506;2023-03-01T03:13:12;72.72;;;26.88;;
34872;SDS011;21084;51.098;14.506;2023-03-01T03:15:42;74.13;;;28.13;;
34872;SDS011;21084;51.098;14.506;2023-03-01T03:18:12;71.97;;;26.75;;
34872;SDS011;21084;51.098;14.506;2023-03-01T03:20:42;77.82;;;27.05;;
34872;SDS011;21084;51.098;14.506;2023-03-01T03:23:12;68.93;;;25.35;;
34872;SDS011;21084;51.098;14.506;2023-03-01T03:25:41;68.55;;;25.73;;
34872;SDS011;21084;51.098;14.506;2023-03-01T03:28:10;67.65;;;24.05;;
34872;SDS011;21084;51.098;14.506;2023-03-01T03:30:39;68.03;;;25.63;;
34872;SDS011;21084;51.098;14.506;2023-03-01T03:33:10;69.35;;;25.13;;
34872;SDS011;21084;51.098;14.506;2023-03-01T03:35:41;69.60;;;25.67;;
34872;SDS011;21084;51.098;14.506;2023-03-01T03:38:12;66.07;;;24.85;;
34872;SDS011;21084;51.098;14.506;2023-03-01T03:40:43;68.75;;;26.27;;
34872;SDS011;21084;51.098;14.506;2023-03-01T03:43:14;71.10;;;25.50;;
34872;SDS011;21084;51.098;14.506;2023-03-01T03:45:44;65.78;;;24.92;;
34872;SDS011;21084;51.098;14.506;2023-03-01T03:48:14;79.10;;;27.25;;
34872;SDS011;21084;51.098;14.506;2023-03-01T03:50:47;77.80;;;28.67;;
34872;SDS011;21084;51.098;14.506;2023-03-01T03:53:16;70.43;;;26.83;;
34872;SDS011;21084;51.098;14.506;2023-03-01T03:55:46;62.45;;;25.33;;
34872;SDS011;21084;51.098;14.506;2023-03-01T03:58:16;63.80;;;24.50;;
34872;SDS011;21084;51.098;14.506;2023-03-01T04:00:48;68.82;;;25.48;;
34872;SDS011;21084;51.098;14.506;2023-03-01T04:03:19;66.53;;;24.05;;
34872;SDS011;21084;51.098;14.506;2023-03-01T04:05:48;65.22;;;25.33;;
34872;SDS011;21084;51.098;14.506;2023-03-01T04:08:19;69.43;;;25.67;;
34872;SDS011;21084;51.098;14.506;2023-03-01T04:10:50;70.75;;;26.83;;
34872;SDS011;21084;51.098;14.506;2023-03-01T04:13:20;70.85;;;25.35;;
34872;SDS011;21084;51.098;14.506;2023-03-01T04:15:52;77.63;;;26.67;;
34872;SDS011;21084;51.098;14.506;2023-03-01T04:18:23;77.43;;;26.42;;
34872;SDS011;21084;51.098;14.506;2023-03-01T04:20:52;69.20;;;26.63;;
34872;SDS011;21084;51.098;14.506;2023-03-01T04:23:22;72.40;;;26.10;;
34872;SDS011;21084;51.098;14.506;2023-03-01T04:25:52;66.75;;;25.85;;
34872;SDS011;21084;51.098;14.506;2023-03-01T04:28:26;78.90;;;27.25;;
34872;SDS011;21084;51.098;14.506;2023-03-01T04:30:56;72.88;;;27.33;;
34872;SDS011;21084;51.098;14.506;2023-03-01T04:33:28;76.97;;;27.85;;
34872;SDS011;21084;51.098;14.506;2023-03-01T04:35:56;81.45;;;28.17;;
34872;SDS011;21084;51.098;14.506;2023-03-01T04:38:25;79.33;;;28.13;;
34872;SDS011;21084;51.098;14.506;2023-03-01T04:40:54;78.37;;;27.23;;
34872;SDS011;21084;51.098;14.506;2023-03-01T04:43:22;73.05;;;26.55;;
34872;SDS011;21084;51.098;14.506;2023-03-01T04:45:51;76.13;;;27.63;;
34872;SDS011;21084;51.098;14.506;2023-03-01T04:48:20;79.07;;;28.88;;
34872;SDS011;21084;51.098;14.506;2023-03-01T04:50:50;79.07;;;31.33;;
34872;SDS011;21084;51.098;14.506;2023-03-01T04:53:18;79.43;;;29.30;;
34872;SDS011;21084;51.098;14.506;2023-03-01T04:55:47;91.40;;;34.03;;
34872;SDS011;21084;51.098;14.506;2023-03-01T04:58:15;100.32;;;34.25;;
34872;SDS011;21084;51.098;14.506;2023-03-01T05:00:44;90.32;;;32.53;;
34872;SDS011;21084;51.098;14.506;2023-03-01T05:03:12;93.40;;;32.60;;
34872;SDS011;21084;51.098;14.506;2023-03-01T05:05:45;83.82;;;30.88;;
34872;SDS011;21084;51.098;14.506;2023-03-01T05:08:16;87.75;;;30.60;;
34872;SDS011;21084;51.098;14.506;2023-03-01T05:10:48;81.05;;;29.63;;
34872;SDS011;21084;51.098;14.506;2023-03-01T05:13:18;93.20;;;32.15;;
34872;SDS011;21084;51.098;14.506;2023-03-01T05:15:48;107.40;;;35.95;;
34872;SDS011;21084;51.098;14.506;2023-03-01T05:18:22;106.50;;;37.85;;
34872;SDS011;21084;51.098;14.506;2023-03-01T05:20:52;94.05;;;34.00;;
34872;SDS011;21084;51.098;14.506;2023-03-01T05:23:24;98.78;;;36.92;;
34872;SDS011;21084;51.098;14.506;2023-03-01T05:25:52;107.18;;;38.95;;
34872;SDS011;21084;51.098;14.506;2023-03-01T05:28:21;113.20;;;41.33;;
34872;SDS011;21084;51.098;14.506;2023-03-01T05:30:50;114.47;;;43.63;;
34872;SDS011;21084;51.098;14.506;2023-03-01T05:33:19;130.35;;;45.15;;
34872;SDS011;21084;51.098;14.506;2023-03-01T05:35:49;113.95;;;40.88;;
34872;SDS011;21084;51.098;14.506;2023-03-01T05:38:18;112.32;;;38.78;;
34872;SDS011;21084;51.098;14.506;2023-03-01T05:40:48;112.82;;;38.95;;
34872;SDS011;21084;51.098;14.506;2023-03-01T05:43:17;108.03;;;37.20;;
34872;SDS011;21084;51.098;14.506;2023-03-01T05:45:46;103.30;;;37.65;;
34872;SDS011;21084;51.098;14.506;2023-03-01T05:48:15;97.07;;;34.45;;
34872;SDS011;21084;51.098;14.506;2023-03-01T05:50:46;97.35;;;34.10;;
34872;SDS011;21084;51.098;14.506;2023-03-01T05:53:15;119.00;;;39.05;;
34872;SDS011;21084;51.098;14.506;2023-03-01T05:55:45;107.05;;;41.50;;
34872;SDS011;21084;51.098;14.506;2023-03-01T05:58:17;123.25;;;42.60;;
34872;SDS011;21084;51.098;14.506;2023-03-01T06:00:47;113.22;;;41.92;;
34872;SDS011;21084;51.098;14.506;2023-03-01T06:03:16;111.40;;;39.13;;
34872;SDS011;21084;51.098;14.506;2023-03-01T06:05:45;120.32;;;44.05;;
34872;SDS011;21084;51.098;14.506;2023-03-01T06:08:14;111.53;;;42.58;;
34872;SDS011;21084;51.098;14.506;2023-03-01T06:10:43;110.72;;;41.53;;
34872;SDS011;21084;51.098;14.506;2023-03-01T06:13:12;93.53;;;35.08;;
34872;SDS011;21084;51.098;14.506;2023-03-01T06:15:42;94.22;;;35.92;;
34872;SDS011;21084;51.098;14.506;2023-03-01T06:18:11;102.18;;;37.22;;
34872;SDS011;21084;51.098;14.506;2023-03-01T06:20:40;99.88;;;40.00;;
34872;SDS011;21084;51.098;14.506;2023-03-01T06:23:09;101.78;;;39.67;;
34872;SDS011;21084;51.098;14.506;2023-03-01T06:25:37;107.88;;;41.33;;
34872;SDS011;21084;51.098;14.506;2023-03-01T06:28:06;98.88;;;38.95;;
34872;SDS011;21084;51.098;14.506;2023-03-01T06:30:35;111.15;;;41.58;;
34872;SDS011;21084;51.098;14.506;2023-03-01T06:33:05;117.75;;;44.65;;
34872;SDS011;21084;51.098;14.506;2023-03-01T06:35:34;118.22;;;45.05;;
34872;SDS011;21084;51.098;14.506;2023-03-01T06:38:03;119.30;;;44.50;;
34872;SDS011;21084;51.098;14.506;2023-03-01T06:40:32;132.38;;;47.10;;
34872;SDS011;21084;51.098;14.506;2023-03-01T06:45:30;126.13;;;45.40;;
34872;SDS011;21084;51.098;14.506;2023-03-01T06:48:02;136.63;;;51.70;;
34872;SDS011;21084;51.098;14.506;2023-03-01T06:50:33;127.75;;;50.15;;
34872;SDS011;21084;51.098;14.506;2023-03-01T06:53:02;134.25;;;49.03;;
34872;SDS011;21084;51.098;14.506;2023-03-01T06:55:31;148.20;;;56.08;;
34872;SDS011;21084;51.098;14.506;2023-03-01T06:58:00;157.00;;;58.42;;
34872;SDS011;21084;51.098;14.506;2023-03-01T07:02:59;156.20;;;57.30;;
34872;SDS011;21084;51.098;14.506;2023-03-01T07:05:29;159.95;;;58.40;;
34872;SDS011;21084;51.098;14.506;2023-03-01T07:07:59;150.88;;;56.47;;
34872;SDS011;21084;51.098;14.506;2023-03-01T07:10:28;144.23;;;54.92;;
34872;SDS011;21084;51.098;14.506;2023-03-01T07:12:57;160.27;;;59.22;;
34872;SDS011;21084;51.098;14.506;2023-03-01T07:17:55;210.25;;;75.93;;
34872;SDS011;21084;51.098;14.506;2023-03-01T07:20:24;196.10;;;77.68;;
34872;SDS011;21084;51.098;14.506;2023-03-01T07:22:54;164.13;;;69.60;;
34872;SDS011;21084;51.098;14.506;2023-03-01T07:25:26;207.43;;;82.68;;
34872;SDS011;21084;51.098;14.506;2023-03-01T07:27:55;197.63;;;81.40;;
34872;SDS011;21084;51.098;14.506;2023-03-01T07:30:24;160.60;;;65.82;;
34872;SDS011;21084;51.098;14.506;2023-03-01T07:32:54;132.18;;;55.88;;
34872;SDS011;21084;51.098;14.506;2023-03-01T07:35:24;117.65;;;45.17;;
34872;SDS011;21084;51.098;14.506;2023-03-01T07:37:53;108.25;;;41.13;;
34872;SDS011;21084;51.098;14.506;2023-03-01T07:40:22;118.55;;;47.30;;
34872;SDS011;21084;51.098;14.506;2023-03-01T07:42:55;138.20;;;56.13;;
34872;SDS011;21084;51.098;14.506;2023-03-01T07:45:24;126.72;;;53.58;;
34872;SDS011;21084;51.098;14.506;2023-03-01T07:47:53;90.78;;;38.85;;
34872;SDS011;21084;51.098;14.506;2023-03-01T07:50:22;127.95;;;51.35;;
34872;SDS011;21084;51.098;14.506;2023-03-01T07:52:51;126.35;;;51.58;;
34872;SDS011;21084;51.098;14.506;2023-03-01T07:55:20;124.53;;;50.50;;
34872;SDS011;21084;51.098;14.506;2023-03-01T07:57:49;120.43;;;50.30;;
34872;SDS011;21084;51.098;14.506;2023-03-01T08:00:20;125.50;;;53.13;;
34872;SDS011;21084;51.098;14.506;2023-03-01T08:02:49;127.22;;;52.03;;
34872;SDS011;21084;51.098;14.506;2023-03-01T08:05:17;143.60;;;54.42;;
34872;SDS011;21084;51.098;14.506;2023-03-01T08:07:48;124.93;;;52.95;;
34872;SDS011;21084;51.098;14.506;2023-03-01T08:10:17;124.90;;;54.15;;
34872;SDS011;21084;51.098;14.506;2023-03-01T08:12:46;123.45;;;52.80;;
34872;SDS011;21084;51.098;14.506;2023-03-01T08:15:14;119.77;;;51.30;;
34872;SDS011;21084;51.098;14.506;2023-03-01T08:17:46;112.57;;;48.00;;
34872;SDS011;21084;51.098;14.506;2023-03-01T08:20:17;127.15;;;46.88;;
34872;SDS011;21084;51.098;14.506;2023-03-01T08:22:46;108.20;;;46.45;;
34872;SDS011;21084;51.098;14.506;2023-03-01T08:25:14;106.68;;;45.40;;
34872;SDS011;21084;51.098;14.506;2023-03-01T08:27:43;109.05;;;45.33;;
34872;SDS011;21084;51.098;14.506;2023-03-01T08:30:12;99.72;;;43.72;;
34872;SDS011;21084;51.098;14.506;2023-03-01T08:32:41;99.63;;;45.22;;
34872;SDS011;21084;51.098;14.506;2023-03-01T08:35:11;108.57;;;44.37;;
34872;SDS011;21084;51.098;14.506;2023-03-01T08:37:40;112.22;;;49.45;;
34872;SDS011;21084;51.098;14.506;2023-03-01T08:40:09;104.43;;;47.28;;
34872;SDS011;21084;51.098;14.506;2023-03-01T08:42:40;109.32;;;48.65;;
34872;SDS011;21084;51.098;14.506;2023-03-01T08:45:09;103.47;;;45.97;;
34872;SDS011;21084;51.098;14.506;2023-03-01T08:47:39;99.45;;;43.55;;
34872;SDS011;21084;51.098;14.506;2023-03-01T08:50:08;99.55;;;44.00;;
34872;SDS011;21084;51.098;14.506;2023-03-01T08:52:38;109.63;;;43.25;;
34872;SDS011;21084;51.098;14.506;2023-03-01T08:55:08;94.32;;;43.75;;
34872;SDS011;21084;51.098;14.506;2023-03-01T08:57:37;103.55;;;41.22;;
34872;SDS011;21084;51.098;14.506;2023-03-01T09:00:06;100.07;;;42.78;;
34872;SDS011;21084;51.098;14.506;2023-03-01T09:02:36;89.68;;;41.72;;
34872;SDS011;21084;51.098;14.506;2023-03-01T09:05:05;103.15;;;41.80;;
34872;SDS011;21084;51.098;14.506;2023-03-01T09:07:34;91.18;;;39.60;;
34872;SDS011;21084;51.098;14.506;2023-03-01T09:10:05;79.28;;;34.83;;
34872;SDS011;21084;51.098;14.506;2023-03-01T09:12:34;73.40;;;33.55;;
34872;SDS011;21084;51.098;14.506;2023-03-01T09:15:03;73.37;;;33.37;;
34872;SDS011;21084;51.098;14.506;2023-03-01T09:17:32;80.70;;;35.25;;
34872;SDS011;21084;51.098;14.506;2023-03-01T09:20:01;74.38;;;33.92;;
34872;SDS011;21084;51.098;14.506;2023-03-01T09:22:32;75.85;;;34.67;;
34872;SDS011;21084;51.098;14.506;2023-03-01T09:25:01;71.95;;;35.22;;
34872;SDS011;21084;51.098;14.506;2023-03-01T09:27:32;77.68;;;34.33;;
34872;SDS011;21084;51.098;14.506;2023-03-01T09:30:01;75.95;;;33.38;;
34872;SDS011;21084;51.098;14.506;2023-03-01T09:32:30;75.63;;;34.50;;
34872;SDS011;21084;51.098;14.506;2023-03-01T09:34:59;78.90;;;33.88;;
34872;SDS011;21084;51.098;14.506;2023-03-01T09:37:31;73.53;;;34.30;;
34872;SDS011;21084;51.098;14.506;2023-03-01T09:40:00;80.05;;;34.50;;
34872;SDS011;21084;51.098;14.506;2023-03-01T09:42:29;73.50;;;35.83;;
34872;SDS011;21084;51.098;14.506;2023-03-01T09:45:03;73.78;;;34.42;;
34872;SDS011;21084;51.098;14.506;2023-03-01T09:47:32;72.18;;;34.33;;
34872;SDS011;21084;51.098;14.506;2023-03-01T09:50:04;69.65;;;33.05;;
34872;SDS011;21084;51.098;14.506;2023-03-01T09:52:36;74.40;;;34.35;;
34872;SDS011;21084;51.098;14.506;2023-03-01T09:55:11;68.97;;;33.42;;
34872;SDS011;21084;51.098;14.506;2023-03-01T09:57:42;72.63;;;32.95;;
34872;SDS011;21084;51.098;14.506;2023-03-01T10:00:15;77.65;;;33.95;;
34872;SDS011;21084;51.098;14.506;2023-03-01T10:02:46;67.68;;;31.92;;
34872;SDS011;21084;51.098;14.506;2023-03-01T10:05:22;69.70;;;33.13;;
34872;SDS011;21084;51.098;14.506;2023-03-01T10:07:54;73.43;;;34.13;;
34872;SDS011;21084;51.098;14.506;2023-03-01T10:10:27;76.25;;;32.95;;
34872;SDS011;21084;51.098;14.506;2023-03-01T10:15:30;68.85;;;31.75;;
34872;SDS011;21084;51.098;14.506;2023-03-01T10:18:03;68.95;;;33.20;;
34872;SDS011;21084;51.098;14.506;2023-03-01T10:20:37;66.88;;;30.75;;
34872;SDS011;21084;51.098;14.506;2023-03-01T10:23:13;68.25;;;32.78;;
34872;SDS011;21084;51.098;14.506;2023-03-01T10:25:52;69.38;;;31.33;;
34872;SDS011;21084;51.098;14.506;2023-03-01T10:28:58;65.88;;;30.95;;
34872;SDS011;21084;51.098;14.506;2023-03-01T10:34:50;76.10;;;30.10;;
34872;SDS011;21084;51.098;14.506;2023-03-01T10:37:33;63.28;;;31.02;;
34872;SDS011;21084;51.098;14.506;2023-03-01T10:40:26;65.40;;;31.08;;
34872;SDS011;21084;51.098;14.506;2023-03-01T10:43:02;67.25;;;32.45;;
34872;SDS011;21084;51.098;14.506;2023-03-01T10:45:35;65.80;;;30.92;;
34872;SDS011;21084;51.098;14.506;2023-03-01T10:48:24;56.30;;;28.30;;
34872;SDS011;21084;51.098;14.506;2023-03-01T10:51:14;59.72;;;28.77;;
34872;SDS011;21084;51.098;14.506;2023-03-01T10:53:48;68.53;;;30.95;;
34872;SDS011;21084;51.098;14.506;2023-03-01T10:56:29;63.55;;;29.73;;
34872;SDS011;21084;51.098;14.506;2023-03-01T10:59:36;62.63;;;29.83;;
34872;SDS011;21084;51.098;14.506;2023-03-01T11:02:36;63.65;;;29.38;;
34872;SDS011;21084;51.098;14.506;2023-03-01T11:05:13;62.10;;;31.58;;
34872;SDS011;21084;51.098;14.506;2023-03-01T11:07:52;58.28;;;29.10;;
34872;SDS011;21084;51.098;14.506;2023-03-01T11:10:25;62.28;;;28.90;;
34872;SDS011;21084;51.098;14.506;2023-03-01T11:13:06;57.22;;;28.95;;
34872;SDS011;21084;51.098;14.506;2023-03-01T11:15:37;52.47;;;26.83;;
34872;SDS011;21084;51.098;14.506;2023-03-01T11:18:20;56.78;;;28.02;;
34872;SDS011;21084;51.098;14.506;2023-03-01T11:21:02;57.53;;;27.73;;
34872;SDS011;21084;51.098;14.506;2023-03-01T11:23:37;56.90;;;27.83;;
34872;SDS011;21084;51.098;14.506;2023-03-01T11:26:09;57.38;;;28.77;;
34872;SDS011;21084;51.098;14.506;2023-03-01T11:28:39;58.30;;;29.35;;
34872;SDS011;21084;51.098;14.506;2023-03-01T11:31:10;63.20;;;29.33;;
34872;SDS011;21084;51.098;14.506;2023-03-01T11:33:41;62.58;;;30.92;;
34872;SDS011;21084;51.098;14.506;2023-03-01T11:36:16;61.05;;;30.95;;
34872;SDS011;21084;51.098;14.506;2023-03-01T11:38:47;60.13;;;30.90;;
34872;SDS011;21084;51.098;14.506;2023-03-01T11:41:16;67.10;;;31.40;;
34872;SDS011;21084;51.098;14.506;2023-03-01T11:43:49;189.65;;;73.68;;
34872;SDS011;21084;51.098;14.506;2023-03-01T11:49:12;61.78;;;31.92;;
34872;SDS011;21084;51.098;14.506;2023-03-01T11:51:47;58.45;;;30.00;;
34872;SDS011;21084;51.098;14.506;2023-03-01T11:54:26;62.92;;;31.65;;
34872;SDS011;21084;51.098;14.506;2023-03-01T11:56:57;57.10;;;30.83;;
34872;SDS011;21084;51.098;14.506;2023-03-01T11:59:46;54.17;;;28.40;;
34872;SDS011;21084;51.098;14.506;2023-03-01T12:02:21;55.75;;;29.00;;
34872;SDS011;21084;51.098;14.506;2023-03-01T12:04:59;55.85;;;27.48;;
34872;SDS011;21084;51.098;14.506;2023-03-01T12:07:32;50.50;;;26.58;;
34872;SDS011;21084;51.098;14.506;2023-03-01T12:12:51;51.03;;;25.90;;
34872;SDS011;21084;51.098;14.506;2023-03-01T12:18:26;48.35;;;25.25;;
34872;SDS011;21084;51.098;14.506;2023-03-01T12:21:00;50.45;;;26.15;;
34872;SDS011;21084;51.098;14.506;2023-03-01T12:23:45;50.25;;;27.35;;
34872;SDS011;21084;51.098;14.506;2023-03-01T12:26:17;49.00;;;24.00;;
34872;SDS011;21084;51.098;14.506;2023-03-01T12:28:52;45.88;;;24.17;;
34872;SDS011;21084;51.098;14.506;2023-03-01T12:31:39;47.85;;;23.73;;
34872;SDS011;21084;51.098;14.506;2023-03-01T12:34:13;55.60;;;27.80;;
34872;SDS011;21084;51.098;14.506;2023-03-01T12:36:48;42.65;;;23.38;;
34872;SDS011;21084;51.098;14.506;2023-03-01T12:39:29;45.83;;;23.90;;
34872;SDS011;21084;51.098;14.506;2023-03-01T12:42:02;44.42;;;22.55;;
34872;SDS011;21084;51.098;14.506;2023-03-01T12:44:40;51.78;;;28.38;;
34872;SDS011;21084;51.098;14.506;2023-03-01T12:49:57;43.63;;;22.58;;
34872;SDS011;21084;51.098;14.506;2023-03-01T12:52:33;44.50;;;22.45;;
34872;SDS011;21084;51.098;14.506;2023-03-01T12:55:08;40.50;;;22.05;;
34872;SDS011;21084;51.098;14.506;2023-03-01T12:57:41;41.92;;;22.77;;
34872;SDS011;21084;51.098;14.506;2023-03-01T13:00:32;40.85;;;22.27;;
34872;SDS011;21084;51.098;14.506;2023-03-01T13:03:12;43.85;;;21.92;;
34872;SDS011;21084;51.098;14.506;2023-03-01T13:05:52;39.13;;;22.27;;
34872;SDS011;21084;51.098;14.506;2023-03-01T13:08:27;44.05;;;22.88;;
34872;SDS011;21084;51.098;14.506;2023-03-01T13:11:04;43.30;;;22.75;;
34872;SDS011;21084;51.098;14.506;2023-03-01T13:13:49;42.67;;;23.10;;
34872;SDS011;21084;51.098;14.506;2023-03-01T13:19:08;37.13;;;21.02;;
34872;SDS011;21084;51.098;14.506;2023-03-01T13:21:38;38.13;;;20.63;;
34872;SDS011;21084;51.098;14.506;2023-03-01T13:27:10;35.50;;;19.35;;
34872;SDS011;21084;51.098;14.506;2023-03-01T13:29:46;32.75;;;19.40;;
34872;SDS011;21084;51.098;14.506;2023-03-01T13:32:19;35.40;;;19.45;;
34872;SDS011;21084;51.098;14.506;2023-03-01T13:35:01;36.28;;;19.25;;
34872;SDS011;21084;51.098;14.506;2023-03-01T13:37:33;37.83;;;21.25;;
34872;SDS011;21084;51.098;14.506;2023-03-01T13:43:25;35.22;;;18.98;;
34872;SDS011;21084;51.098;14.506;2023-03-01T13:45:55;33.13;;;18.80;;
34872;SDS011;21084;51.098;14.506;2023-03-01T13:48:27;39.22;;;19.92;;
34872;SDS011;21084;51.098;14.506;2023-03-01T13:50:59;36.72;;;20.15;;
34872;SDS011;21084;51.098;14.506;2023-03-01T13:53:29;35.53;;;19.13;;
34872;SDS011;21084;51.098;14.506;2023-03-01T13:56:00;35.95;;;19.95;;
34872;SDS011;21084;51.098;14.506;2023-03-01T13:58:30;37.28;;;19.75;;
34872;SDS011;21084;51.098;14.506;2023-03-01T14:01:00;34.13;;;19.05;;
34872;SDS011;21084;51.098;14.506;2023-03-01T14:03:30;38.40;;;20.70;;
34872;SDS011;21084;51.098;14.506;2023-03-01T14:06:05;35.67;;;20.00;;
34872;SDS011;21084;51.098;14.506;2023-03-01T14:08:42;35.67;;;20.30;;
34872;SDS011;21084;51.098;14.506;2023-03-01T14:11:24;37.95;;;21.65;;
34872;SDS011;21084;51.098;14.506;2023-03-01T14:14:01;30.05;;;18.10;;
34872;SDS011;21084;51.098;14.506;2023-03-01T14:16:35;34.83;;;20.05;;
34872;SDS011;21084;51.098;14.506;2023-03-01T14:19:14;37.20;;;19.38;;
34872;SDS011;21084;51.098;14.506;2023-03-01T14:22:00;31.35;;;17.77;;
34872;SDS011;21084;51.098;14.506;2023-03-01T14:24:31;31.77;;;18.33;;
34872;SDS011;21084;51.098;14.506;2023-03-01T14:27:02;31.92;;;17.85;;
34872;SDS011;21084;51.098;14.506;2023-03-01T14:29:34;26.92;;;16.42;;
34872;SDS011;21084;51.098;14.506;2023-03-01T14:32:12;34.20;;;17.23;;
34872;SDS011;21084;51.098;14.506;2023-03-01T14:34:47;29.38;;;16.15;;
34872;SDS011;21084;51.098;14.506;2023-03-01T14:37:19;26.60;;;15.60;;
34872;SDS011;21084;51.098;14.506;2023-03-01T14:39:48;30.90;;;15.57;;
34872;SDS011;21084;51.098;14.506;2023-03-01T14:42:17;25.00;;;14.05;;
34872;SDS011;21084;51.098;14.506;2023-03-01T14:44:47;26.75;;;14.48;;
34872;SDS011;21084;51.098;14.506;2023-03-01T14:47:20;28.42;;;14.80;;
34872;SDS011;21084;51.098;14.506;2023-03-01T14:49:50;31.30;;;15.77;;
34872;SDS011;21084;51.098;14.506;2023-03-01T14:52:25;27.75;;;15.70;;
34872;SDS011;21084;51.098;14.506;2023-03-01T14:54:57;28.33;;;15.68;;
34872;SDS011;21084;51.098;14.506;2023-03-01T14:57:26;25.73;;;14.23;;
34872;SDS011;21084;51.098;14.506;2023-03-01T14:59:57;27.23;;;15.40;;
34872;SDS011;21084;51.098;14.506;2023-03-01T15:02:27;24.20;;;13.50;;
34872;SDS011;21084;51.098;14.506;2023-03-01T15:04:57;28.20;;;14.73;;
34872;SDS011;21084;51.098;14.506;2023-03-01T15:07:30;26.65;;;13.57;;
34872;SDS011;21084;51.098;14.506;2023-03-01T15:10:00;27.67;;;13.20;;
34872;SDS011;21084;51.098;14.506;2023-03-01T15:12:40;25.35;;;12.30;;
34872;SDS011;21084;51.098;14.506;2023-03-01T15:18:06;22.70;;;12.32;;
34872;SDS011;21084;51.098;14.506;2023-03-01T15:20:40;21.25;;;12.48;;
34872;SDS011;21084;51.098;14.506;2023-03-01T15:23:19;22.38;;;12.13;;